.
WxDataArchive / Data Records for 2009-04-18
2009-04-17 April 2009 2009-04-19

Data Records for Saturday, 18 April 2009

Time	Temp	Chill	HIndex	Humid	Dewpt	 Wind 	HiWind	WindDir	Rain 	Barom 
-----	----	-----	------	-----	-----	------	------	-------	-----	----- 
00:00	45.5	45.5	45.5	69	35.9	0	0	---	0.00	30.253 
00:05	45.2	45.2	45.2	69	35.6	0	0	---	0.00	30.253 
00:10	44.9	44.9	44.9	69	35.4	0	0	---	0.00	30.253 
00:15	44.6	44.6	44.6	69	35.1	0	0	---	0.00	30.251 
00:20	44.3	44.3	44.3	69	34.8	0	0	---	0.00	30.251 
00:25	44.1	44.1	44.1	69	34.6	0	0	---	0.00	30.251 
00:30	43.9	43.9	43.9	70	34.8	0	0	---	0.00	30.248 
00:35	43.8	43.8	43.8	72	35.4	0	0	---	0.00	30.248 
00:40	43.6	43.6	43.6	72	35.2	0	0	---	0.00	30.248 
00:45	43.5	43.5	43.5	73	35.4	0	0	---	0.00	30.243 
00:50	43.3	43.3	43.3	74	35.6	0	0	---	0.00	30.243 
00:55	43.1	43.1	43.1	74	35.4	0	0	---	0.00	30.243 
01:00	42.9	42.9	42.9	74	35.2	0	0	---	0.00	30.238 
01:05	42.8	42.8	42.8	74	35.1	0	0	---	0.00	30.238 
01:10	42.6	42.6	42.6	74	34.9	0	0	---	0.00	30.238 
01:15	42.6	42.6	42.6	75	35.2	0	0	---	0.00	30.234 
01:20	42.5	42.5	42.5	75	35.1	0	0	---	0.00	30.234 
01:25	42.3	42.3	42.3	76	35.3	0	0	---	0.00	30.234 
01:30	42.2	42.2	42.2	76	35.2	0	0	---	0.00	30.228 
01:35	42.1	42.1	42.1	77	35.4	0	0	---	0.00	30.228 
01:40	41.9	41.9	41.9	78	35.5	0	0	---	0.00	30.228 
01:45	41.9	41.9	41.9	79	35.9	0	0	---	0.00	30.222 
01:50	41.9	41.9	41.9	79	35.9	0	0	---	0.00	30.222 
01:55	41.9	41.9	41.9	80	36.2	0	0	---	0.00	30.222 
02:00	41.8	41.8	41.8	80	36.1	0	0	---	0.00	30.218 
02:05	41.6	41.6	41.6	80	35.9	0	0	---	0.00	30.218 
02:10	41.6	41.6	41.6	80	35.9	0	0	---	0.00	30.218 
02:15	41.5	41.5	41.5	80	35.8	0	0	---	0.00	30.211 
02:20	41.5	41.5	41.5	81	36.1	0	0	---	0.00	30.211 
02:25	41.5	41.5	41.5	81	36.1	0	0	---	0.00	30.211 
02:30	41.3	41.3	41.3	81	35.9	0	0	---	0.00	30.203 
02:35	41.2	41.2	41.2	80	35.5	0	0	---	0.00	30.203 
02:40	41.1	41.1	41.1	81	35.7	0	0	---	0.00	30.203 
02:45	41.1	41.1	41.1	81	35.7	0	0	---	0.00	30.201 
02:50	40.8	40.8	40.8	81	35.4	0	0	---	0.00	30.201 
02:55	40.8	40.8	40.8	81	35.4	0	0	---	0.00	30.201 
03:00	40.8	40.8	40.8	82	35.7	0	0	---	0.00	30.196 
03:05	40.6	40.6	40.6	82	35.5	0	0	---	0.00	30.196 
03:10	40.5	40.5	40.5	82	35.4	0	0	---	0.00	30.196 
03:15	40.3	40.3	40.3	82	35.2	0	0	---	0.00	30.188 
03:20	40.1	40.1	40.1	82	35.1	0	0	---	0.00	30.188 
03:25	39.9	39.9	39.9	82	34.9	0	0	---	0.00	30.188 
03:30	39.8	39.8	39.8	82	34.8	0	0	---	0.00	30.182 
03:35	39.6	39.6	39.6	82	34.6	0	0	---	0.00	30.182 
03:40	39.5	39.5	39.5	82	34.5	0	0	---	0.00	30.182 
03:45	39.3	39.3	39.3	83	34.6	0	0	---	0.00	30.174 
03:50	39.2	39.2	39.2	83	34.5	0	0	---	0.00	30.174 
03:55	39.1	39.1	39.1	83	34.4	0	0	---	0.00	30.174 
04:00	39.1	39.1	39.1	84	34.7	0	0	---	0.00	30.174 
04:05	38.9	38.9	38.9	84	34.5	0	0	---	0.00	30.174 
04:10	38.8	38.8	38.8	84	34.4	0	0	---	0.00	30.174 
04:15	38.6	38.6	38.6	85	34.5	0	0	---	0.00	30.176 
04:20	38.5	38.5	38.5	85	34.4	0	0	---	0.00	30.176 
04:25	38.5	38.5	38.5	86	34.7	0	0	---	0.00	30.176 
04:30	38.6	38.6	38.6	86	34.8	0	0	---	0.00	30.176 
04:35	38.6	38.6	38.6	86	34.8	0	0	---	0.00	30.176 
04:40	38.8	38.8	38.8	87	35.3	0	0	---	0.00	30.176 
04:45	38.8	38.8	38.8	87	35.3	0	0	---	0.00	30.177 
04:50	38.9	38.9	38.9	87	35.4	0	0	---	0.00	30.177 
04:55	38.8	38.8	38.8	87	35.3	0	0	---	0.00	30.177 
05:00	38.8	38.8	38.8	87	35.3	0	0	---	0.00	30.177 
05:05	38.6	38.6	38.6	87	35.1	0	0	---	0.00	30.177 
05:10	38.3	38.3	38.3	87	34.8	0	0	---	0.00	30.177 
05:15	38.2	38.2	38.2	87	34.7	0	0	---	0.00	30.176 
05:20	38.0	38.0	38.0	87	34.5	0	0	---	0.00	30.176 
05:25	37.8	37.8	37.8	87	34.3	0	0	---	0.00	30.176 
05:30	37.6	37.6	37.6	87	34.1	0	0	---	0.00	30.176 
05:35	37.5	37.5	37.5	88	34.3	0	0	---	0.00	30.176 
05:40	37.3	37.3	37.3	88	34.1	0	0	---	0.00	30.176 
05:45	37.2	37.2	37.2	88	34.0	0	0	---	0.00	30.174 
05:50	37.0	37.0	37.0	88	33.8	0	0	---	0.00	30.174 
05:55	36.9	36.9	36.9	88	33.7	0	0	---	0.00	30.174 
06:00	36.8	36.8	36.8	88	33.6	0	0	---	0.00	30.174 
06:05	36.8	36.8	36.8	89	33.9	0	0	---	0.00	30.174 
06:10	36.8	36.8	36.8	89	33.9	0	0	---	0.00	30.174 
06:15	36.8	36.8	36.8	89	33.9	0	0	---	0.00	30.177 
06:20	36.6	36.6	36.6	89	33.7	0	0	---	0.00	30.177 
06:25	36.6	36.6	36.6	90	33.9	0	0	---	0.00	30.177 
06:30	36.5	36.5	36.5	90	33.9	0	0	---	0.00	30.177 
06:35	36.3	36.3	36.3	90	33.7	0	0	---	0.00	30.177 
06:40	36.3	36.3	36.3	90	33.7	0	0	---	0.00	30.177 
06:45	36.3	36.3	36.3	90	33.7	0	0	---	0.00	30.179 
06:50	36.2	36.2	36.2	90	33.6	0	0	---	0.00	30.179 
06:55	36.2	36.2	36.2	90	33.6	0	0	---	0.00	30.179 
07:00	36.2	36.2	36.2	91	33.8	0	0	---	0.00	30.180 
07:05	36.2	36.2	36.2	91	33.8	0	0	---	0.00	30.180 
07:10	36.2	36.2	36.2	91	33.8	0	0	---	0.00	30.180 
07:15	36.2	36.2	36.2	91	33.8	0	0	---	0.00	30.185 
07:20	36.2	36.2	36.2	91	33.8	0	0	---	0.00	30.185 
07:25	36.3	36.3	36.3	91	33.9	0	0	---	0.00	30.185 
07:30	36.5	36.5	36.5	91	34.1	0	0	---	0.00	30.190 
07:35	36.8	36.8	36.8	91	34.4	0	0	---	0.00	30.190 
07:40	37.2	37.2	37.2	92	35.1	0	0	---	0.00	30.190 
07:45	37.6	37.6	37.6	92	35.5	0	0	---	0.00	30.191 
07:50	38.2	38.2	38.2	92	36.1	0	0	---	0.00	30.191 
07:55	39.1	39.1	39.1	92	37.0	0	0	---	0.00	30.191 
08:00	40.1	40.1	40.1	91	37.7	0	0	---	0.00	30.190 
08:05	40.9	40.9	40.9	90	38.2	0	0	---	0.00	30.190 
08:10	41.9	41.9	41.9	89	38.9	0	0	---	0.00	30.190 
08:15	43.1	43.1	43.1	89	40.1	0	0	---	0.00	30.195 
08:20	44.3	44.3	44.3	85	40.1	0	0	---	0.00	30.195 
08:25	46.5	46.5	46.5	77	39.7	0	0	---	0.00	30.195 
08:30	48.8	48.8	48.8	71	39.8	0	0	---	0.00	30.187 
08:35	50.8	50.8	50.8	65	39.5	0	0	---	0.00	30.187 
08:40	53.1	53.1	53.1	63	40.8	0	0	---	0.00	30.187 
08:45	55.1	55.1	55.1	54	38.8	0	0	---	0.00	30.182 
08:50	55.9	55.9	55.9	50	37.5	0	0	---	0.00	30.182 
08:55	56.3	56.3	56.3	50	37.9	0	0	---	0.00	30.182 
09:00	56.6	56.6	56.6	49	37.7	0	0	---	0.00	30.179 
09:05	57.2	57.2	57.2	54	40.7	0	0	---	0.00	30.179 
09:10	58.0	58.0	58.0	50	39.5	0	0	---	0.00	30.179 
09:15	58.9	58.9	58.9	50	40.3	0	0	---	0.00	30.176 
09:20	59.6	59.6	59.6	45	38.2	0	1	158	0.00	30.176 
09:25	59.9	59.9	59.9	45	38.5	0	1	158	0.00	30.176 
09:30	59.9	59.9	59.9	46	39.1	0	1	158	0.00	30.172 
09:35	60.1	60.1	60.1	47	39.8	0	0	---	0.00	30.172 
09:40	60.1	60.1	60.1	47	39.8	0	1	158	0.00	30.172 
09:45	60.4	60.4	60.4	48	40.6	0	1	158	0.00	30.171 
09:50	61.2	61.2	61.2	44	39.1	0	2	158	0.00	30.171 
09:55	62.0	62.0	62.0	44	39.8	0	2	158	0.00	30.171 
10:00	62.4	62.4	62.4	40	37.8	1	3	158	0.00	30.167 
10:05	62.9	62.9	62.9	42	39.5	0	2	180	0.00	30.167 
10:10	63.2	63.2	63.2	43	40.3	0	3	248	0.00	30.167 
10:15	63.9	63.9	63.9	43	41.0	0	2	248	0.00	30.168 
10:20	64.3	64.3	64.3	41	40.1	1	3	90	0.00	30.168 
10:25	64.7	64.7	64.7	44	42.3	1	3	90	0.00	30.168 
10:30	64.7	64.7	64.7	41	40.5	1	3	315	0.00	30.163 
10:35	64.8	64.8	64.8	42	41.2	1	3	248	0.00	30.163 
10:40	65.6	65.6	65.6	42	41.9	1	4	90	0.00	30.163 
10:45	66.4	66.4	66.4	40	41.3	0	1	90	0.00	30.158 
10:50	67.1	67.1	67.1	39	41.3	1	3	225	0.00	30.158 
10:55	67.3	67.3	67.3	36	39.4	0	2	225	0.00	30.158 
11:00	67.6	67.6	67.6	39	41.8	0	2	135	0.00	30.153 
11:05	67.8	67.8	67.8	34	38.4	1	3	248	0.00	30.153 
11:10	68.1	68.1	68.1	33	37.9	1	5	248	0.00	30.153 
11:15	68.1	68.1	68.1	36	40.1	0	3	248	0.00	30.153 
11:20	68.3	68.3	68.3	31	36.5	1	3	248	0.00	30.153 
11:25	68.4	68.4	68.4	30	35.7	1	4	248	0.00	30.153 
11:30	68.9	68.9	68.9	33	38.6	1	3	248	0.00	30.151 
11:35	69.3	69.3	69.3	31	37.4	1	5	248	0.00	30.151 
11:40	69.4	69.4	69.4	30	36.6	1	3	248	0.00	30.151 
11:45	69.3	69.3	69.3	31	37.4	1	3	270	0.00	30.151 
11:50	69.4	69.4	69.4	28	34.9	2	4	248	0.00	30.151 
11:55	69.4	69.4	69.4	28	34.9	2	4	248	0.00	30.151 
12:00	69.8	69.8	69.8	30	37.0	1	3	248	0.00	30.144 
12:05	70.1	70.1	70.1	28	35.5	1	3	248	0.00	30.144 
12:10	70.3	70.3	70.3	30	37.4	1	4	248	0.00	30.144 
12:15	70.6	70.6	70.6	29	36.8	1	2	248	0.00	30.140 
12:20	70.9	70.9	70.9	27	35.2	1	4	248	0.00	30.140 
12:25	71.3	71.3	71.3	27	35.6	2	7	248	0.00	30.140 
12:30	71.1	71.1	71.1	27	35.4	1	4	248	0.00	30.137 
12:35	71.3	71.3	71.3	30	38.3	1	3	292	0.00	30.137 
12:40	71.5	71.5	71.5	28	36.7	1	3	270	0.00	30.137 
12:45	72.0	72.0	72.0	31	39.7	1	3	270	0.00	30.129 
12:50	72.3	72.3	72.3	29	38.3	1	5	22	0.00	30.129 
12:55	72.3	72.3	72.3	28	37.4	1	4	248	0.00	30.129 
13:00	72.1	72.1	72.1	27	36.3	2	7	270	0.00	30.120 
13:05	71.8	71.8	71.8	28	36.9	2	4	270	0.00	30.120 
13:10	72.0	72.0	72.0	29	38.0	1	2	338	0.00	30.120 
13:15	72.5	72.5	72.5	28	37.5	2	4	248	0.00	30.118 
13:20	72.8	72.8	72.8	31	40.4	1	3	270	0.00	30.118 
13:25	72.8	72.8	72.8	28	37.8	1	3	248	0.00	30.118 
13:30	72.7	72.7	72.7	28	37.7	2	6	270	0.00	30.112 
13:35	72.5	72.5	72.5	28	37.5	2	5	248	0.00	30.112 
13:40	72.7	72.7	72.7	28	37.7	1	4	248	0.00	30.112 
13:45	72.7	72.7	72.7	28	37.7	3	6	270	0.00	30.105 
13:50	72.7	72.7	72.7	31	40.3	2	5	248	0.00	30.105 
13:55	72.8	72.8	72.8	28	37.8	3	7	270	0.00	30.105 
14:00	72.8	72.8	72.8	30	39.5	2	5	248	0.00	30.099 
14:05	73.2	73.2	73.2	32	41.6	2	4	248	0.00	30.099 
14:10	73.2	73.2	73.2	28	38.1	2	6	248	0.00	30.099 
14:15	73.2	73.2	73.2	30	39.9	2	5	248	0.00	30.091 
14:20	73.3	73.3	73.3	34	43.2	2	5	248	0.00	30.091 
14:25	73.7	73.7	73.7	30	40.3	2	4	248	0.00	30.091 
14:30	73.7	73.7	73.7	31	41.2	2	5	248	0.00	30.089 
14:35	73.5	73.5	73.5	32	41.8	1	4	248	0.00	30.089 
14:40	73.2	73.2	73.2	31	40.7	2	4	270	0.00	30.089 
14:45	73.2	73.2	73.2	33	42.4	1	5	338	0.00	30.080 
14:50	73.3	73.3	73.3	30	40.0	3	7	248	0.00	30.080 
14:55	73.2	73.2	73.2	31	40.7	2	4	248	0.00	30.080 
15:00	73.5	73.5	73.5	34	43.4	1	2	270	0.00	30.074 
15:05	73.9	73.9	73.9	33	43.0	1	4	248	0.00	30.074 
15:10	74.0	74.0	74.0	34	43.8	1	3	248	0.00	30.074 
15:15	74.0	74.0	74.0	33	43.1	1	3	270	0.00	30.068 
15:20	74.2	74.2	74.2	33	43.2	2	4	270	0.00	30.068 
15:25	74.0	74.0	74.0	33	43.1	2	6	248	0.00	30.068 
15:30	73.7	73.7	73.7	34	43.6	1	4	248	0.00	30.059 
15:35	73.2	73.2	73.2	34	43.1	2	9	248	0.00	30.059 
15:40	72.8	72.8	72.8	33	42.0	1	3	248	0.00	30.059 
15:45	72.8	72.8	72.8	35	43.5	0	2	248	0.00	30.054 
15:50	72.8	72.8	72.8	34	42.8	1	5	248	0.00	30.054 
15:55	73.0	73.0	73.0	35	43.7	2	5	248	0.00	30.054 
16:00	73.0	73.0	73.0	34	43.0	1	3	248	0.00	30.044 
16:05	72.7	72.7	72.7	36	44.2	1	3	292	0.00	30.044 
16:10	72.7	72.7	72.7	37	44.9	1	5	248	0.00	30.044 
16:15	72.7	72.7	72.7	37	44.9	1	6	270	0.00	30.044 
16:20	72.7	72.7	72.7	36	44.2	1	3	338	0.00	30.044 
16:25	73.0	73.0	73.0	38	45.9	1	3	248	0.00	30.044 
16:30	73.2	73.2	73.2	35	43.9	1	4	248	0.00	30.044 
16:35	73.2	73.2	73.2	36	44.6	1	4	248	0.00	30.044 
16:40	73.3	73.3	73.3	35	44.0	1	3	315	0.00	30.044 
16:45	73.2	73.2	73.2	35	43.9	2	4	248	0.00	30.036 
16:50	73.0	73.0	73.0	35	43.7	1	5	248	0.00	30.036 
16:55	72.7	72.7	72.7	37	44.9	1	4	248	0.00	30.036 
17:00	72.5	72.5	72.5	37	44.7	1	2	248	0.00	30.029 
17:05	72.3	72.3	72.3	36	43.8	1	3	248	0.00	30.029 
17:10	72.3	72.3	72.3	37	44.6	0	1	338	0.00	30.029 
17:15	72.3	72.3	72.3	38	45.3	0	2	338	0.00	30.030 
17:20	72.1	72.1	72.1	37	44.4	0	3	338	0.00	30.030 
17:25	71.8	71.8	71.8	39	45.5	1	2	338	0.00	30.030 
17:30	71.6	71.6	71.6	38	44.6	1	3	225	0.00	30.030 
17:35	71.3	71.3	71.3	39	45.1	0	1	225	0.00	30.030 
17:40	71.1	71.1	71.1	39	44.9	1	3	248	0.00	30.030 
17:45	70.9	70.9	70.9	39	44.7	1	3	248	0.00	30.033 
17:50	70.8	70.8	70.8	40	45.3	1	4	225	0.00	30.033 
17:55	70.4	70.4	70.4	40	44.9	1	4	248	0.00	30.033 
18:00	70.3	70.3	70.3	39	44.2	1	3	248	0.00	30.047 
18:05	70.1	70.1	70.1	39	44.0	1	5	248	0.00	30.047 
18:10	70.1	70.1	70.1	39	44.0	2	5	248	0.00	30.047 
18:15	70.1	70.1	70.1	39	44.0	1	3	248	0.00	30.048 
18:20	70.3	70.3	70.3	40	44.8	1	3	248	0.00	30.048 
18:25	70.4	70.4	70.4	40	44.9	2	5	248	0.00	30.048 
18:30	70.6	70.6	70.6	39	44.4	2	5	248	0.00	30.049 
18:35	70.4	70.4	70.4	40	44.9	1	3	248	0.00	30.049 
18:40	70.3	70.3	70.3	40	44.8	1	4	248	0.00	30.049 
18:45	69.9	69.9	69.9	40	44.5	1	4	248	0.00	30.050 
18:50	69.8	69.8	69.8	41	45.0	1	5	248	0.00	30.050 
18:55	69.4	69.4	69.4	41	44.7	1	2	248	0.00	30.050 
19:00	69.3	69.3	69.3	41	44.6	1	5	248	0.00	30.052 
19:05	69.1	69.1	69.1	42	45.0	1	3	248	0.00	30.052 
19:10	69.1	69.1	69.1	42	45.0	1	3	248	0.00	30.052 
19:15	68.9	68.9	68.9	42	44.9	0	2	248	0.00	30.046 
19:20	68.8	68.8	68.8	43	45.4	0	1	248	0.00	30.046 
19:25	68.6	68.6	68.6	46	47.0	0	1	248	0.00	30.046 
19:30	68.3	68.3	68.3	46	46.7	0	1	248	0.00	30.031 
19:35	68.1	68.1	68.1	45	45.9	0	1	248	0.00	30.031 
19:40	67.9	67.9	67.9	46	46.3	0	0	---	0.00	30.031 
19:45	67.8	67.8	67.8	46	46.3	0	0	---	0.00	30.029 
19:50	67.4	67.4	67.4	46	45.9	0	0	---	0.00	30.029 
19:55	67.1	67.1	67.1	47	46.2	0	0	---	0.00	30.029 
20:00	66.9	66.9	66.9	46	45.4	0	0	---	0.00	30.028 
20:05	66.6	66.6	66.6	49	46.8	0	0	---	0.00	30.028 
20:10	66.3	66.3	66.3	49	46.6	0	0	---	0.00	30.028 
20:15	66.0	66.0	66.0	50	46.8	0	0	---	0.00	30.005 
20:20	65.6	65.6	65.6	50	46.5	0	0	---	0.00	30.005 
20:25	65.3	65.3	65.3	54	48.2	0	0	---	0.00	30.005 
20:30	64.8	64.8	64.8	53	47.3	0	0	---	0.00	30.001 
20:35	64.5	64.5	64.5	53	47.0	0	0	---	0.00	30.001 
20:40	64.3	64.3	64.3	54	47.3	0	0	---	0.00	30.001 
20:45	64.2	64.2	64.2	54	47.2	0	0	---	0.00	30.005 
20:50	64.0	64.0	64.0	55	47.5	0	0	---	0.00	30.005 
20:55	63.7	63.7	63.7	57	48.2	0	0	---	0.00	30.005 
21:00	63.4	63.4	63.4	57	47.9	0	0	---	0.00	29.999 
21:05	63.1	63.1	63.1	57	47.6	0	0	---	0.00	29.999 
21:10	62.9	62.9	62.9	58	47.9	0	0	---	0.00	29.999 
21:15	62.6	62.6	62.6	58	47.6	0	0	---	0.00	29.995 
21:20	62.6	62.6	62.6	59	48.1	0	0	---	0.00	29.995 
21:25	62.4	62.4	62.4	59	47.9	0	0	---	0.00	29.995 
21:30	62.3	62.3	62.3	60	48.2	0	0	---	0.00	29.996 
21:35	62.3	62.3	62.3	61	48.7	0	0	---	0.00	29.996 
21:40	62.1	62.1	62.1	61	48.5	0	0	---	0.00	29.996 
21:45	62.1	62.1	62.1	62	48.9	0	0	---	0.00	30.000 
21:50	62.0	62.0	62.0	62	48.8	0	0	---	0.00	30.000 
21:55	61.8	61.8	61.8	63	49.1	0	0	---	0.00	30.000 
22:00	61.6	61.6	61.6	64	49.3	0	0	---	0.00	29.999 
22:05	61.5	61.5	61.5	64	49.2	0	0	---	0.00	29.999 
22:10	61.3	61.3	61.3	64	49.0	0	0	---	0.00	29.999 
22:15	61.2	61.2	61.2	63	48.5	0	0	---	0.00	29.998 
22:20	61.0	61.0	61.0	63	48.3	0	0	---	0.00	29.998 
22:25	61.0	61.0	61.0	63	48.3	0	0	---	0.00	29.998 
22:30	60.9	60.9	60.9	63	48.2	0	0	---	0.00	30.000 
22:35	60.7	60.7	60.7	64	48.4	0	0	---	0.00	30.000 
22:40	60.5	60.5	60.5	65	48.7	0	0	---	0.00	30.000 
22:45	60.4	60.4	60.4	65	48.6	0	0	---	0.00	30.003 
22:50	60.2	60.2	60.2	65	48.4	0	0	---	0.00	30.003 
22:55	60.1	60.1	60.1	65	48.3	0	0	---	0.00	30.003 
23:00	60.1	60.1	60.1	67	49.1	0	0	---	0.00	30.001 
23:05	60.1	60.1	60.1	68	49.5	0	0	---	0.00	30.001 
23:10	59.9	59.9	59.9	68	49.3	0	0	---	0.00	30.001 
23:15	59.9	59.9	59.9	68	49.3	0	0	---	0.00	30.004 
23:20	59.8	59.8	59.8	68	49.2	0	0	---	0.00	30.004 
23:25	59.8	59.8	59.8	67	48.8	0	0	---	0.00	30.004 
23:30	59.6	59.6	59.6	67	48.6	0	0	---	0.00	30.000 
23:35	59.5	59.5	59.5	67	48.5	0	0	---	0.00	30.000 
23:40	59.5	59.5	59.5	68	48.9	0	0	---	0.00	30.000 
23:45	59.5	59.5	59.5	68	48.9	0	0	---	0.00	29.996 
23:50	59.3	59.3	59.3	68	48.7	0	0	---	0.00	29.996 
23:55	59.3	59.3	59.3	68	48.7	0	0	---	0.00	29.996 

CoCoRaHS
IN-AL-39
A2 Web Hosting
Creative Commons License
GoDaddy
search engine by freefind advanced

loaded 2018-11-17 19:22:59 • last modified 2010-11-18 10:43:29
Privacy PolicyDisclaimer
• wx.awcolley.com is powered by PmWiki v.2002016 •
• all content (unless otherwise noted) © 2018 A W Colley